Time;durP1;ratioP1;P1;durP2;ratioP2;P2;SDS_P1;SDS_P2;PMS_P1;PMS_P2;Temp;Humidity;BMP_temperature;BMP_pressure;BME280_temperature;BME280_humidity;BME280_pressure;Samples;Min_cycle;Max_cycle;Signal;HPM_P1;HPM_P2
2023/03/20 00:01:16;;;;;;;3.08;1.75;;;;;;;;;;5126678;27;20027;-48
2023/03/20 00:03:43;;;;;;;4.07;2.15;;;;;;;;;;5127972;27;20023;-48
2023/03/20 00:06:16;;;;;;;2.15;1.70;;;;;;;;;;5114536;27;20034;-46
2023/03/20 00:08:44;;;;;;;2.23;1.67;;;;;;;;;;5107451;28;20103;-50
2023/03/20 00:11:31;;;;;;;2.00;1.55;;;;;;;;;;5101692;27;20019;-50
2023/03/20 00:14:01;;;;;;;1.58;1.33;;;;;;;;;;5126888;27;20139;-47
2023/03/20 00:16:32;;;;;;;2.38;1.42;;;;;;;;;;5127263;27;20406;-47
2023/03/20 00:18:58;;;;;;;1.65;1.40;;;;;;;;;;5126709;27;20066;-46
2023/03/20 00:21:24;;;;;;;2.08;1.35;;;;;;;;;;5126948;27;20023;-46
2023/03/20 00:23:50;;;;;;;1.08;1.00;;;;;;;;;;5126790;27;20106;-47
2023/03/20 00:26:18;;;;;;;2.20;1.60;;;;;;;;;;5126762;27;20405;-46
2023/03/20 00:28:47;;;;;;;2.13;1.55;;;;;;;;;;5126751;27;20057;-46
2023/03/20 00:31:21;;;;;;;1.77;1.58;;;;;;;;;;5127157;27;20027;-48
2023/03/20 00:33:48;;;;;;;1.85;1.33;;;;;;;;;;5126593;27;20031;-47
2023/03/20 00:36:15;;;;;;;1.30;1.20;;;;;;;;;;5126966;27;20055;-49
2023/03/20 00:38:41;;;;;;;1.90;1.52;;;;;;;;;;5127216;27;20076;-50
2023/03/20 00:41:21;;;;;;;1.73;1.30;;;;;;;;;;5126207;27;20023;-47
2023/03/20 00:43:49;;;;;;;1.65;1.40;;;;;;;;;;5126370;27;20038;-46
2023/03/20 00:46:15;;;;;;;2.25;1.70;;;;;;;;;;5126855;27;20019;-47
2023/03/20 00:48:43;;;;;;;2.08;1.58;;;;;;;;;;5126677;27;20023;-47
2023/03/20 00:51:09;;;;;;;2.35;1.50;;;;;;;;;;5126756;27;20027;-47
2023/03/20 00:53:36;;;;;;;1.77;1.40;;;;;;;;;;5126371;27;20031;-48
2023/03/20 00:56:04;;;;;;;2.42;1.48;;;;;;;;;;5126705;27;20144;-49
2023/03/20 00:58:30;;;;;;;1.73;1.50;;;;;;;;;;5126113;27;20034;-46
2023/03/20 01:00:57;;;;;;;2.05;1.70;;;;;;;;;;5126400;27;20374;-46
2023/03/20 01:03:25;;;;;;;1.52;1.30;;;;;;;;;;5126371;27;20023;-48
2023/03/20 06:13:25;;;;;;;0.95;0.85;;;;;;;;;;5126771;27;20054;-47
2023/03/20 06:15:51;;;;;;;0.70;0.70;;;;;;;;;;5127487;28;20031;-50
2023/03/20 06:18:17;;;;;;;0.73;0.65;;;;;;;;;;5127024;27;20031;-50
2023/03/20 06:20:43;;;;;;;1.17;0.88;;;;;;;;;;5127076;28;20030;-46
2023/03/20 06:23:09;;;;;;;0.70;0.70;;;;;;;;;;5127368;27;20015;-48
2023/03/20 06:25:35;;;;;;;0.82;0.77;;;;;;;;;;5127200;28;20030;-48
2023/03/20 06:28:02;;;;;;;0.70;0.70;;;;;;;;;;5127711;28;20563;-50
2023/03/20 06:30:30;;;;;;;0.85;0.60;;;;;;;;;;5129334;27;20027;-47
2023/03/20 06:32:56;;;;;;;0.82;0.77;;;;;;;;;;5130809;27;20634;-47
2023/03/20 06:35:22;;;;;;;1.52;0.82;;;;;;;;;;5127065;27;20113;-49
2023/03/20 06:37:48;;;;;;;0.85;0.73;;;;;;;;;;5106019;28;20063;-47
2023/03/20 06:40:14;;;;;;;2.33;0.90;;;;;;;;;;5099363;28;20100;-48
2023/03/20 06:42:40;;;;;;;1.08;0.90;;;;;;;;;;5111300;28;20020;-48
2023/03/20 06:45:07;;;;;;;1.00;0.90;;;;;;;;;;5110981;28;20517;-47
2023/03/20 06:47:33;;;;;;;0.73;0.70;;;;;;;;;;5111404;28;20149;-47
2023/03/20 06:49:59;;;;;;;1.08;0.70;;;;;;;;;;5110748;27;20035;-48
2023/03/20 06:52:25;;;;;;;1.10;0.90;;;;;;;;;;5111360;28;20394;-47
2023/03/20 06:54:51;;;;;;;2.97;1.10;;;;;;;;;;5106649;28;20158;-48
2023/03/20 06:57:17;;;;;;;0.75;0.73;;;;;;;;;;5109365;28;20081;-46
2023/03/20 06:59:44;;;;;;;1.10;1.00;;;;;;;;;;5109560;28;20047;-47
2023/03/20 07:02:10;;;;;;;1.77;0.82;;;;;;;;;;5122491;27;20023;-48
2023/03/20 07:04:36;;;;;;;1.30;0.90;;;;;;;;;;5109522;28;20107;-48
2023/03/20 07:07:03;;;;;;;2.08;1.13;;;;;;;;;;5105899;28;20020;-48
2023/03/20 07:09:29;;;;;;;1.15;0.80;;;;;;;;;;5109416;27;20024;-49
2023/03/20 07:11:55;;;;;;;1.67;0.80;;;;;;;;;;5109607;28;20469;-46
2023/03/20 07:14:21;;;;;;;1.30;1.17;;;;;;;;;;5125997;27;20042;-50
2023/03/20 07:16:47;;;;;;;0.70;0.70;;;;;;;;;;5108610;27;20382;-49
2023/03/20 07:19:15;;;;;;;1.48;0.80;;;;;;;;;;5089088;28;20127;-47
2023/03/20 07:21:41;;;;;;;1.05;0.80;;;;;;;;;;5089123;28;20051;-47
2023/03/20 07:24:07;;;;;;;1.10;0.80;;;;;;;;;;5094257;27;20032;-48
2023/03/20 07:26:33;;;;;;;0.70;0.70;;;;;;;;;;5089325;28;20032;-46
2023/03/20 07:28:59;;;;;;;1.00;0.90;;;;;;;;;;5088780;28;20506;-49
2023/03/20 07:31:27;;;;;;;0.88;0.70;;;;;;;;;;5088642;28;20043;-47
2023/03/20 07:33:53;;;;;;;1.00;0.90;;;;;;;;;;5088739;28;20519;-47
2023/03/20 07:36:20;;;;;;;0.82;0.82;;;;;;;;;;5100085;28;20038;-49
2023/03/20 07:38:47;;;;;;;1.35;0.70;;;;;;;;;;5107774;28;20035;-46
2023/03/20 07:41:14;;;;;;;1.88;0.70;;;;;;;;;;5105901;28;20397;-47
2023/03/20 07:43:40;;;;;;;1.40;0.70;;;;;;;;;;5108389;28;20058;-48
2023/03/20 07:46:07;;;;;;;0.90;0.80;;;;;;;;;;5104330;28;20059;-47
2023/03/20 07:48:33;;;;;;;1.30;0.90;;;;;;;;;;5107282;28;20462;-47
2023/03/20 07:50:59;;;;;;;2.05;1.20;;;;;;;;;;5104632;28;20055;-47
2023/03/20 07:53:25;;;;;;;1.17;0.82;;;;;;;;;;5108005;28;20501;-47
2023/03/20 07:55:51;;;;;;;0.80;0.80;;;;;;;;;;5105014;28;20506;-50
2023/03/20 07:58:17;;;;;;;1.13;0.90;;;;;;;;;;5107517;28;20046;-49
2023/03/20 08:00:43;;;;;;;1.05;0.90;;;;;;;;;;5104606;28;20387;-50
2023/03/20 08:03:09;;;;;;;0.85;0.85;;;;;;;;;;5090535;28;20086;-47
2023/03/20 08:05:37;;;;;;;1.25;0.80;;;;;;;;;;5105640;28;20016;-50
2023/03/20 08:08:03;;;;;;;1.05;0.90;;;;;;;;;;5107611;28;20036;-46
2023/03/20 08:10:29;;;;;;;1.25;0.90;;;;;;;;;;5106418;28;20019;-48
2023/03/20 08:12:55;;;;;;;0.73;0.73;;;;;;;;;;5104672;27;20033;-47
2023/03/20 08:15:21;;;;;;;0.95;0.70;;;;;;;;;;5105634;28;20023;-47
2023/03/20 08:17:49;;;;;;;1.35;0.82;;;;;;;;;;5106709;28;20036;-48
2023/03/20 08:20:15;;;;;;;0.85;0.85;;;;;;;;;;5106505;28;20033;-48
2023/03/20 08:22:41;;;;;;;0.75;0.75;;;;;;;;;;5106402;28;20100;-47
2023/03/20 08:25:08;;;;;;;1.23;0.90;;;;;;;;;;5106243;28;20027;-47
2023/03/20 08:27:34;;;;;;;2.22;0.90;;;;;;;;;;5107132;28;20024;-48
2023/03/20 08:30:00;;;;;;;1.15;1.00;;;;;;;;;;5106581;28;20031;-50
2023/03/20 08:32:26;;;;;;;1.17;0.93;;;;;;;;;;5106497;28;20039;-48
2023/03/20 08:34:55;;;;;;;1.67;1.05;;;;;;;;;;5108178;27;20023;-48
2023/03/20 08:37:21;;;;;;;0.80;0.80;;;;;;;;;;5105125;28;20027;-47
2023/03/20 08:39:47;;;;;;;1.58;0.93;;;;;;;;;;5107252;28;20459;-47
2023/03/20 08:42:14;;;;;;;0.90;0.90;;;;;;;;;;5107610;28;20102;-48
2023/03/20 08:44:40;;;;;;;1.20;1.10;;;;;;;;;;5107400;28;20079;-46
2023/03/20 08:47:06;;;;;;;1.60;1.20;;;;;;;;;;5107206;28;20739;-47
2023/03/20 08:49:33;;;;;;;1.80;1.27;;;;;;;;;;5108357;28;20031;-48
2023/03/20 08:52:00;;;;;;;2.13;1.40;;;;;;;;;;5108112;28;20024;-50
2023/03/20 08:54:26;;;;;;;1.90;1.48;;;;;;;;;;5108916;28;20414;-47
2023/03/20 08:56:52;;;;;;;2.38;1.50;;;;;;;;;;5108539;28;20398;-49
2023/03/20 08:59:18;;;;;;;2.75;1.50;;;;;;;;;;5108674;28;20031;-47
2023/03/20 09:01:45;;;;;;;1.88;1.50;;;;;;;;;;5107959;28;20028;-46
2023/03/20 09:04:12;;;;;;;2.38;1.55;;;;;;;;;;5107769;28;20020;-48
2023/03/20 09:06:39;;;;;;;2.40;1.58;;;;;;;;;;5107380;28;20099;-47
2023/03/20 09:09:05;;;;;;;1.33;1.20;;;;;;;;;;5107834;28;20027;-48
2023/03/20 09:11:31;;;;;;;2.03;1.30;;;;;;;;;;5107487;28;20023;-47
2023/03/20 09:13:58;;;;;;;2.25;1.50;;;;;;;;;;5107052;28;20221;-48
2023/03/20 09:16:24;;;;;;;1.50;1.10;;;;;;;;;;5107496;28;20024;-47
2023/03/20 09:18:50;;;;;;;1.10;0.80;;;;;;;;;;5107281;28;20026;-47
2023/03/20 09:21:16;;;;;;;0.80;0.80;;;;;;;;;;5107578;28;20020;-47
2023/03/20 09:23:42;;;;;;;1.65;1.35;;;;;;;;;;5107557;28;20517;-48
2023/03/20 09:26:08;;;;;;;1.00;0.90;;;;;;;;;;5107300;28;20111;-48
2023/03/20 09:28:35;;;;;;;1.60;1.10;;;;;;;;;;5107499;28;20107;-47
2023/03/20 09:31:01;;;;;;;1.48;1.10;;;;;;;;;;5107479;28;20103;-47
2023/03/20 09:33:27;;;;;;;1.05;0.90;;;;;;;;;;5107416;28;20032;-47
2023/03/20 09:35:53;;;;;;;0.90;0.73;;;;;;;;;;5106060;28;20057;-46
2023/03/20 09:38:20;;;;;;;0.75;0.73;;;;;;;;;;5107227;28;20043;-49
2023/03/20 09:40:46;;;;;;;1.27;0.90;;;;;;;;;;5107207;28;20031;-48
2023/03/20 09:43:17;;;;;;;0.75;0.75;;;;;;;;;;5106973;28;20019;-47
2023/03/20 09:46:01;;;;;;;1.48;1.20;;;;;;;;;;5107338;28;20030;-49
2023/03/20 09:48:35;;;;;;;2.08;1.63;;;;;;;;;;5106995;28;20107;-48
2023/03/20 09:51:15;;;;;;;1.73;1.20;;;;;;;;;;5107380;28;20059;-47
2023/03/20 09:53:47;;;;;;;2.58;1.30;;;;;;;;;;5107236;28;20026;-48
2023/03/20 09:56:17;;;;;;;1.90;1.00;;;;;;;;;;5107177;28;20032;-50
2023/03/20 09:58:44;;;;;;;0.80;0.80;;;;;;;;;;5106848;28;20036;-47
2023/03/20 10:01:13;;;;;;;0.98;0.90;;;;;;;;;;5106881;28;20031;-46
2023/03/20 10:04:00;;;;;;;0.77;0.75;;;;;;;;;;5106966;28;20026;-50
2023/03/20 10:06:26;;;;;;;1.25;1.00;;;;;;;;;;5110731;28;20587;-48
2023/03/20 10:08:54;;;;;;;1.60;1.25;;;;;;;;;;5110945;28;20038;-48
2023/03/20 10:11:34;;;;;;;1.73;1.38;;;;;;;;;;5110717;28;20016;-47
2023/03/20 10:14:00;;;;;;;1.80;1.00;;;;;;;;;;5110560;28;20498;-48
2023/03/20 10:16:36;;;;;;;1.60;1.10;;;;;;;;;;5110685;28;20031;-46
2023/03/20 10:19:05;;;;;;;1.20;0.98;;;;;;;;;;5111002;28;20027;-47
2023/03/20 10:21:52;;;;;;;1.23;0.80;;;;;;;;;;5110664;28;20027;-49
2023/03/20 10:24:25;;;;;;;0.68;0.65;;;;;;;;;;5110424;28;20027;-48
2023/03/20 10:26:53;;;;;;;0.70;0.70;;;;;;;;;;5110484;28;20546;-47
2023/03/20 10:29:29;;;;;;;1.17;0.80;;;;;;;;;;5110449;28;20402;-49
2023/03/20 10:32:01;;;;;;;1.08;0.85;;;;;;;;;;5110217;28;20027;-48
2023/03/20 10:34:47;;;;;;;1.23;1.10;;;;;;;;;;5110249;28;20026;-48
2023/03/20 10:37:22;;;;;;;1.98;1.02;;;;;;;;;;5110366;28;20472;-48
2023/03/20 10:39:54;;;;;;;0.90;0.90;;;;;;;;;;5110289;28;20387;-47
2023/03/20 10:42:23;;;;;;;1.80;1.50;;;;;;;;;;5109989;28;20058;-48
2023/03/20 10:44:55;;;;;;;1.92;1.10;;;;;;;;;;5110272;28;20039;-50
2023/03/20 10:47:23;;;;;;;1.42;1.08;;;;;;;;;;5110021;28;20449;-49
2023/03/20 10:49:54;;;;;;;1.45;1.10;;;;;;;;;;5110054;28;20027;-48
2023/03/20 10:52:23;;;;;;;1.00;0.90;;;;;;;;;;5110024;28;20035;-47
2023/03/20 10:55:11;;;;;;;1.52;0.95;;;;;;;;;;5110184;28;20081;-48
2023/03/20 10:57:40;;;;;;;1.65;1.00;;;;;;;;;;5109767;28;20031;-47
2023/03/20 11:00:11;;;;;;;0.98;0.88;;;;;;;;;;5109769;28;20053;-48
2023/03/20 11:02:37;;;;;;;1.95;0.90;;;;;;;;;;5109873;28;20055;-47
2023/03/20 11:05:26;;;;;;;0.70;0.70;;;;;;;;;;5110242;28;20023;-51
2023/03/20 11:08:05;;;;;;;0.82;0.60;;;;;;;;;;5099287;28;20039;-50
2023/03/20 11:10:31;;;;;;;0.80;0.80;;;;;;;;;;5109560;28;20224;-47
2023/03/20 11:12:57;;;;;;;0.47;0.47;;;;;;;;;;5108767;28;20078;-50
2023/03/20 11:15:26;;;;;;;0.57;0.57;;;;;;;;;;5108868;28;20028;-47
2023/03/20 11:17:58;;;;;;;0.88;0.70;;;;;;;;;;5109614;28;20032;-46
2023/03/20 11:20:25;;;;;;;0.82;0.60;;;;;;;;;;5109083;28;20498;-47
2023/03/20 11:22:57;;;;;;;0.40;0.40;;;;;;;;;;5109295;28;20024;-48
2023/03/20 11:25:28;;;;;;;0.50;0.50;;;;;;;;;;5109503;28;20023;-49
2023/03/20 11:27:55;;;;;;;0.93;0.40;;;;;;;;;;5109192;28;20038;-48
2023/03/20 11:30:21;;;;;;;0.50;0.50;;;;;;;;;;5109609;28;20378;-47
2023/03/20 11:32:49;;;;;;;0.50;0.50;;;;;;;;;;5109125;28;20027;-47
2023/03/20 11:35:21;;;;;;;0.85;0.60;;;;;;;;;;5109303;28;20024;-48
2023/03/20 11:37:49;;;;;;;0.60;0.60;;;;;;;;;;5109179;28;20035;-48
2023/03/20 11:40:29;;;;;;;0.70;0.70;;;;;;;;;;5109174;28;20024;-48
2023/03/20 11:42:57;;;;;;;0.60;0.60;;;;;;;;;;5108893;28;20024;-48
2023/03/20 11:45:24;;;;;;;1.02;0.93;;;;;;;;;;5109272;28;20068;-47
2023/03/20 11:47:52;;;;;;;0.65;0.65;;;;;;;;;;5108183;28;20103;-50
2023/03/20 11:50:39;;;;;;;0.60;0.60;;;;;;;;;;5108099;28;20503;-48
2023/03/20 11:53:25;;;;;;;0.50;0.50;;;;;;;;;;5108602;28;20463;-50
2023/03/20 11:56:17;;;;;;;0.50;0.50;;;;;;;;;;5108733;28;20042;-46
2023/03/20 11:59:12;;;;;;;0.57;0.40;;;;;;;;;;5100718;28;20304;-48
2023/03/20 12:01:47;;;;;;;0.65;0.65;;;;;;;;;;5102943;28;20537;-47
2023/03/20 12:04:26;;;;;;;1.05;0.40;;;;;;;;;;5107617;28;20508;-50
2023/03/20 12:07:04;;;;;;;0.50;0.50;;;;;;;;;;5108821;28;20011;-49
2023/03/20 12:09:42;;;;;;;0.30;0.30;;;;;;;;;;5107509;28;20031;-46
2023/03/20 12:12:27;;;;;;;0.40;0.40;;;;;;;;;;5108112;28;20032;-48
2023/03/20 12:14:53;;;;;;;0.63;0.63;;;;;;;;;;5107962;28;20146;-52
2023/03/20 12:17:38;;;;;;;0.50;0.50;;;;;;;;;;5109055;28;20106;-49
2023/03/20 12:20:10;;;;;;;0.50;0.50;;;;;;;;;;5108277;28;20522;-52
2023/03/20 12:22:45;;;;;;;0.60;0.60;;;;;;;;;;5108932;28;20035;-51
2023/03/20 12:25:15;;;;;;;0.45;0.45;;;;;;;;;;5107924;28;20390;-48
2023/03/20 12:27:46;;;;;;;0.63;0.57;;;;;;;;;;5108051;28;20031;-48
2023/03/20 12:30:15;;;;;;;0.80;0.77;;;;;;;;;;5105113;28;20028;-48
2023/03/20 12:32:45;;;;;;;0.80;0.80;;;;;;;;;;5107036;28;20098;-49
2023/03/20 12:35:12;;;;;;;0.60;0.60;;;;;;;;;;5106409;28;20104;-48
2023/03/20 12:37:38;;;;;;;0.32;0.32;;;;;;;;;;5107092;28;20039;-50
2023/03/20 12:40:05;;;;;;;0.40;0.40;;;;;;;;;;5086686;28;20023;-49
2023/03/20 12:42:50;;;;;;;0.45;0.45;;;;;;;;;;5106724;28;20055;-47
2023/03/20 12:45:30;;;;;;;0.50;0.40;;;;;;;;;;5106213;28;20423;-48
2023/03/20 12:47:59;;;;;;;0.40;0.40;;;;;;;;;;5107662;28;20041;-47
2023/03/20 12:50:33;;;;;;;0.70;0.60;;;;;;;;;;5105026;28;20030;-48
2023/03/20 12:53:08;;;;;;;0.40;0.40;;;;;;;;;;5107523;28;20518;-48
2023/03/20 12:55:34;;;;;;;0.47;0.47;;;;;;;;;;5105833;28;20513;-48
2023/03/20 12:58:19;;;;;;;0.50;0.50;;;;;;;;;;5107198;28;20063;-49
2023/03/20 13:01:03;;;;;;;0.57;0.50;;;;;;;;;;5104372;28;20479;-51
2023/03/20 13:03:30;;;;;;;0.40;0.40;;;;;;;;;;5107372;28;20038;-49
2023/03/20 13:05:59;;;;;;;0.40;0.40;;;;;;;;;;5086583;28;20114;-49
2023/03/20 13:08:44;;;;;;;0.47;0.47;;;;;;;;;;5107474;28;20031;-47
2023/03/20 13:11:10;;;;;;;0.63;0.50;;;;;;;;;;5104658;28;20494;-51
2023/03/20 13:13:46;;;;;;;1.48;0.60;;;;;;;;;;5115556;27;20039;-47
2023/03/20 13:16:21;;;;;;;1.10;0.40;;;;;;;;;;5104845;28;20035;-49
2023/03/20 13:18:47;;;;;;;0.57;0.40;;;;;;;;;;5116147;27;20039;-48
2023/03/20 13:21:15;;;;;;;0.50;0.38;;;;;;;;;;5102008;28;20030;-47
2023/03/20 13:23:56;;;;;;;0.25;0.25;;;;;;;;;;5117610;28;20026;-51
2023/03/20 13:26:30;;;;;;;0.30;0.30;;;;;;;;;;5109554;28;20506;-49
2023/03/20 13:28:56;;;;;;;;;;;;;;;;;;5124089;28;20039;-48
2023/03/20 13:31:41;;;;;;;0.40;0.40;;;;;;;;;;5104936;28;20311;-49
2023/03/20 13:34:24;;;;;;;0.30;0.30;;;;;;;;;;5122226;28;20043;-48
2023/03/20 13:36:50;;;;;;;0.60;0.50;;;;;;;;;;5108251;28;20046;-50
2023/03/20 13:39:28;;;;;;;0.35;0.35;;;;;;;;;;5114826;28;20149;-48
2023/03/20 13:41:55;;;;;;;0.30;0.30;;;;;;;;;;5111401;27;20111;-46
2023/03/20 13:44:22;;;;;;;0.40;0.40;;;;;;;;;;5124034;27;20020;-48
2023/03/20 13:46:56;;;;;;;0.40;0.40;;;;;;;;;;5111156;27;20019;-47
2023/03/20 13:49:32;;;;;;;0.43;0.43;;;;;;;;;;5103116;27;20482;-49
2023/03/20 13:52:16;;;;;;;0.30;0.30;;;;;;;;;;5121594;27;20039;-48
2023/03/20 13:54:52;;;;;;;0.30;0.30;;;;;;;;;;5121333;27;20448;-47
2023/03/20 13:57:19;;;;;;;0.30;0.30;;;;;;;;;;5115989;27;20408;-49
2023/03/20 13:59:58;;;;;;;0.50;0.40;;;;;;;;;;5119187;27;20027;-50
2023/03/20 14:02:57;;;;;;;0.40;0.40;;;;;;;;;;5115949;27;20058;-50
2023/03/20 14:05:25;;;;;;;0.50;0.40;;;;;;;;;;5058286;28;20403;-48
2023/03/20 14:07:55;;;;;;;0.43;0.43;;;;;;;;;;5120005;27;20027;-49
2023/03/20 14:10:21;;;;;;;0.57;0.40;;;;;;;;;;5102711;27;20034;-48
2023/03/20 14:12:59;;;;;;;0.50;0.50;;;;;;;;;;5110531;27;20410;-48
2023/03/20 14:15:27;;;;;;;0.28;0.28;;;;;;;;;;5104435;27;20415;-51
2023/03/20 14:17:54;;;;;;;0.30;0.30;;;;;;;;;;5108978;27;20072;-50
2023/03/20 14:20:32;;;;;;;0.60;0.50;;;;;;;;;;5105224;28;20451;-48
2023/03/20 14:22:58;;;;;;;1.25;0.70;;;;;;;;;;5105880;27;20459;-48
2023/03/20 14:25:25;;;;;;;0.35;0.35;;;;;;;;;;5106457;28;20123;-47
2023/03/20 14:28:18;;;;;;;0.52;0.38;;;;;;;;;;5115467;27;20027;-49
2023/03/20 14:30:46;;;;;;;0.40;0.40;;;;;;;;;;5102683;27;20032;-49
2023/03/20 14:33:12;;;;;;;2.22;0.50;;;;;;;;;;5111565;27;20454;-47
2023/03/20 14:35:42;;;;;;;0.47;0.40;;;;;;;;;;5106677;27;20103;-47
2023/03/20 14:38:15;;;;;;;0.63;0.40;;;;;;;;;;5108773;27;20770;-47
2023/03/20 14:40:52;;;;;;;0.68;0.32;;;;;;;;;;5108263;27;20019;-49
2023/03/20 14:43:33;;;;;;;0.30;0.30;;;;;;;;;;5109937;27;20031;-49
2023/03/20 14:46:03;;;;;;;0.45;0.45;;;;;;;;;;5109747;27;20069;-49
2023/03/20 14:48:41;;;;;;;0.35;0.35;;;;;;;;;;5118483;27;20031;-49
2023/03/20 14:51:21;;;;;;;0.50;0.50;;;;;;;;;;5101101;28;20027;-47
2023/03/20 14:53:58;;;;;;;0.40;0.40;;;;;;;;;;5111155;27;20114;-48
2023/03/20 14:56:28;;;;;;;0.40;0.40;;;;;;;;;;5104799;28;20086;-49
2023/03/20 14:59:00;;;;;;;0.40;0.40;;;;;;;;;;5093555;28;20855;-48
2023/03/20 15:01:34;;;;;;;0.30;0.30;;;;;;;;;;5104499;28;20023;-47
2023/03/20 15:04:05;;;;;;;0.67;0.30;;;;;;;;;;5116840;27;20494;-50
2023/03/20 15:06:33;;;;;;;0.63;0.50;;;;;;;;;;5112952;27;20047;-47
2023/03/20 15:09:00;;;;;;;0.40;0.40;;;;;;;;;;5107232;27;20027;-47
2023/03/20 15:11:27;;;;;;;0.57;0.50;;;;;;;;;;5104944;27;20043;-48
2023/03/20 15:13:53;;;;;;;0.40;0.40;;;;;;;;;;5110307;27;20104;-47
2023/03/20 15:16:28;;;;;;;0.40;0.40;;;;;;;;;;5110701;27;20111;-49
2023/03/20 15:18:54;;;;;;;0.45;0.45;;;;;;;;;;5111954;27;20035;-52
2023/03/20 15:21:29;;;;;;;0.30;0.30;;;;;;;;;;5107291;27;20024;-48
2023/03/20 15:23:56;;;;;;;0.60;0.47;;;;;;;;;;5122940;27;20031;-48
2023/03/20 15:26:26;;;;;;;0.50;0.50;;;;;;;;;;5117771;27;20081;-48
2023/03/20 15:29:00;;;;;;;0.40;0.40;;;;;;;;;;5080873;27;20024;-51
2023/03/20 15:31:31;;;;;;;0.47;0.47;;;;;;;;;;5107752;27;20390;-48
2023/03/20 15:33:58;;;;;;;0.45;0.45;;;;;;;;;;5115484;27;20025;-48
2023/03/20 15:36:33;;;;;;;0.65;0.52;;;;;;;;;;5120838;27;20028;-51
2023/03/20 15:39:21;;;;;;;0.40;0.40;;;;;;;;;;5111664;27;20879;-47
2023/03/20 15:41:48;;;;;;;0.47;0.38;;;;;;;;;;5103751;27;20077;-48
2023/03/20 15:44:14;;;;;;;0.45;0.45;;;;;;;;;;5093939;27;20466;-49
2023/03/20 15:46:40;;;;;;;0.40;0.40;;;;;;;;;;5107257;27;20284;-49
2023/03/20 15:49:07;;;;;;;1.90;0.40;;;;;;;;;;5105535;27;20031;-48
2023/03/20 15:51:34;;;;;;;0.45;0.45;;;;;;;;;;5119921;27;20583;-49
2023/03/20 15:54:06;;;;;;;0.50;0.50;;;;;;;;;;5119047;27;20027;-49
2023/03/20 15:56:34;;;;;;;0.30;0.30;;;;;;;;;;5118928;27;20502;-48
2023/03/20 15:59:00;;;;;;;0.40;0.40;;;;;;;;;;5121700;27;20023;-46
2023/03/20 16:01:31;;;;;;;0.43;0.40;;;;;;;;;;5117198;27;20019;-49
2023/03/20 16:03:59;;;;;;;0.60;0.47;;;;;;;;;;5118001;27;20505;-49
2023/03/20 16:06:25;;;;;;;0.30;0.30;;;;;;;;;;5106815;27;20028;-51
2023/03/20 16:09:17;;;;;;;0.47;0.40;;;;;;;;;;5110124;27;20124;-47
2023/03/20 16:11:49;;;;;;;0.98;0.47;;;;;;;;;;5103051;27;20042;-46
2023/03/20 16:14:20;;;;;;;0.43;0.43;;;;;;;;;;5118465;27;20528;-48
2023/03/20 16:16:48;;;;;;;0.30;0.30;;;;;;;;;;5121893;27;20114;-49
2023/03/20 16:19:15;;;;;;;0.52;0.40;;;;;;;;;;5124507;27;20024;-46
2023/03/20 16:21:44;;;;;;;0.40;0.40;;;;;;;;;;5124068;27;20106;-46
2023/03/20 16:24:15;;;;;;;0.30;0.30;;;;;;;;;;5124717;27;20027;-49
2023/03/20 16:26:44;;;;;;;0.35;0.35;;;;;;;;;;5125129;27;20072;-45
2023/03/20 16:29:13;;;;;;;1.17;0.40;;;;;;;;;;5125259;27;20099;-47
2023/03/20 16:31:43;;;;;;;0.73;0.60;;;;;;;;;;5123664;27;20490;-50
2023/03/20 16:34:13;;;;;;;1.50;0.50;;;;;;;;;;5124429;27;20686;-46
2023/03/20 16:36:39;;;;;;;0.30;0.30;;;;;;;;;;5122060;27;20031;-47
2023/03/20 16:39:08;;;;;;;0.90;0.50;;;;;;;;;;5123807;27;20042;-48
2023/03/20 16:41:38;;;;;;;0.75;0.40;;;;;;;;;;5130578;27;20027;-48
2023/03/20 16:44:07;;;;;;;0.47;0.40;;;;;;;;;;5122576;27;20023;-49
2023/03/20 16:46:33;;;;;;;0.30;0.30;;;;;;;;;;5122627;27;20030;-47
2023/03/20 16:49:22;;;;;;;0.55;0.40;;;;;;;;;;5124226;27;20088;-48
2023/03/20 16:51:48;;;;;;;0.30;0.30;;;;;;;;;;5086352;27;20126;-49
2023/03/20 16:54:20;;;;;;;0.40;0.40;;;;;;;;;;5122679;27;20055;-50
2023/03/20 16:56:56;;;;;;;0.47;0.47;;;;;;;;;;5122847;27;20035;-47
2023/03/20 16:59:23;;;;;;;0.50;0.50;;;;;;;;;;5124847;27;20030;-48
2023/03/20 17:01:52;;;;;;;1.00;0.50;;;;;;;;;;5122169;27;20115;-47
2023/03/20 17:04:39;;;;;;;0.98;0.80;;;;;;;;;;5121758;27;20461;-46
2023/03/20 17:07:24;;;;;;;0.77;0.70;;;;;;;;;;5102729;27;20406;-46
2023/03/20 17:09:50;;;;;;;;;;;;;;;;;;5121679;27;20037;-50
2023/03/20 17:12:17;;;;;;;0.40;0.40;;;;;;;;;;5122994;27;19915;-50
2023/03/20 17:14:44;;;;;;;0.90;0.50;;;;;;;;;;5122339;27;20332;-50
2023/03/20 17:17:14;;;;;;;0.57;0.52;;;;;;;;;;5121830;27;20031;-47
2023/03/20 17:19:40;;;;;;;0.40;0.40;;;;;;;;;;5122268;27;20034;-47
2023/03/20 17:22:14;;;;;;;0.60;0.40;;;;;;;;;;5122268;27;20402;-47
2023/03/20 17:24:40;;;;;;;0.70;0.60;;;;;;;;;;5103570;27;20217;-50
2023/03/20 17:27:06;;;;;;;0.57;0.50;;;;;;;;;;5122144;27;20126;-51
2023/03/20 17:29:32;;;;;;;0.30;0.30;;;;;;;;;;5122371;27;20505;-52
2023/03/20 17:31:58;;;;;;;0.47;0.47;;;;;;;;;;5122871;27;20023;-49
2023/03/20 17:34:25;;;;;;;0.88;0.32;;;;;;;;;;5127158;27;20050;-49
2023/03/20 17:36:51;;;;;;;0.40;0.32;;;;;;;;;;5123644;28;20034;-50
2023/03/20 17:39:18;;;;;;;0.55;0.55;;;;;;;;;;5124792;28;20027;-49
2023/03/20 17:41:45;;;;;;;0.75;0.50;;;;;;;;;;5122558;28;20057;-50
2023/03/20 17:44:11;;;;;;;0.60;0.60;;;;;;;;;;5123508;28;20027;-51
2023/03/20 17:46:37;;;;;;;0.98;0.68;;;;;;;;;;5121310;27;20087;-49
2023/03/20 17:49:13;;;;;;;0.40;0.40;;;;;;;;;;5124365;28;20050;-48
2023/03/20 17:51:39;;;;;;;0.70;0.63;;;;;;;;;;5121382;28;20023;-49
2023/03/20 17:54:05;;;;;;;0.60;0.60;;;;;;;;;;5124878;28;20258;-48
2023/03/20 17:56:32;;;;;;;2.47;2.22;;;;;;;;;;5126500;28;20023;-52
2023/03/20 17:58:58;;;;;;;3.20;2.53;;;;;;;;;;5123088;28;20497;-53
2023/03/20 18:01:26;;;;;;;2.70;2.38;;;;;;;;;;5124390;28;20035;-49
2023/03/20 18:03:53;;;;;;;1.92;1.73;;;;;;;;;;5119804;28;20053;-51
2023/03/20 18:06:26;;;;;;;1.30;1.20;;;;;;;;;;5122903;28;20023;-50
2023/03/20 18:08:52;;;;;;;2.08;1.50;;;;;;;;;;5122800;28;20407;-49
2023/03/20 18:11:18;;;;;;;4.97;3.50;;;;;;;;;;5111146;28;20089;-51
2023/03/20 18:13:44;;;;;;;4.30;3.22;;;;;;;;;;5123495;27;20031;-48
2023/03/20 18:16:21;;;;;;;4.38;3.33;;;;;;;;;;5124275;27;20046;-51
2023/03/20 18:18:47;;;;;;;2.72;2.47;;;;;;;;;;5113241;27;20042;-48
2023/03/20 18:21:15;;;;;;;3.30;2.15;;;;;;;;;;5132332;27;20024;-51
2023/03/20 18:23:42;;;;;;;2.45;2.00;;;;;;;;;;5122347;27;20038;-50
2023/03/20 18:26:16;;;;;;;3.97;2.63;;;;;;;;;;5127048;27;20042;-51
2023/03/20 18:28:42;;;;;;;11.15;6.05;;;;;;;;;;5129419;27;20034;-50
2023/03/20 18:31:11;;;;;;;11.82;5.40;;;;;;;;;;5130025;27;20498;-49
2023/03/20 18:33:37;;;;;;;11.75;5.47;;;;;;;;;;5129427;27;20026;-50
2023/03/20 18:36:03;;;;;;;7.78;3.80;;;;;;;;;;5120451;27;20035;-48
2023/03/20 18:38:29;;;;;;;6.10;3.15;;;;;;;;;;5128846;27;20468;-48
2023/03/20 18:40:55;;;;;;;4.63;2.47;;;;;;;;;;5125691;27;20099;-50
2023/03/20 18:43:22;;;;;;;4.05;2.20;;;;;;;;;;5128419;27;20512;-51
2023/03/20 18:45:48;;;;;;;3.05;1.90;;;;;;;;;;5125454;27;20029;-53
2023/03/20 18:48:15;;;;;;;2.13;1.40;;;;;;;;;;5127331;27;20728;-52
2023/03/20 18:50:41;;;;;;;3.08;1.80;;;;;;;;;;5127599;27;20080;-48
2023/03/20 18:53:08;;;;;;;2.85;1.80;;;;;;;;;;5128332;27;20414;-50
2023/03/20 18:55:35;;;;;;;3.10;2.10;;;;;;;;;;5108560;27;20437;-52
2023/03/20 18:58:02;;;;;;;9.40;4.00;;;;;;;;;;5126463;27;20452;-53
2023/03/20 19:00:32;;;;;;;6.63;3.60;;;;;;;;;;5125871;27;20110;-50
2023/03/20 19:02:59;;;;;;;5.03;3.10;;;;;;;;;;5126823;27;20026;-50
2023/03/20 19:05:26;;;;;;;3.97;2.60;;;;;;;;;;5128140;27;20047;-48
2023/03/20 19:07:53;;;;;;;4.32;2.70;;;;;;;;;;5119862;27;20508;-49
2023/03/20 19:10:36;;;;;;;4.75;2.83;;;;;;;;;;5127336;27;20448;-49
2023/03/20 19:13:03;;;;;;;4.05;2.47;;;;;;;;;;5125993;27;20114;-49
2023/03/20 19:15:34;;;;;;;5.93;3.03;;;;;;;;;;5127398;27;20034;-48
2023/03/20 19:18:00;;;;;;;8.88;4.18;;;;;;;;;;5125209;27;20130;-50
2023/03/20 19:20:36;;;;;;;7.43;3.33;;;;;;;;;;5105583;27;20031;-49
2023/03/20 19:23:03;;;;;;;7.50;3.63;;;;;;;;;;5122109;27;20605;-50
2023/03/20 19:25:30;;;;;;;5.63;2.95;;;;;;;;;;5128688;27;20114;-51
2023/03/20 19:27:56;;;;;;;7.80;3.88;;;;;;;;;;5127522;27;20129;-52
2023/03/20 19:30:22;;;;;;;10.05;4.05;;;;;;;;;;5129217;27;20642;-52
2023/03/20 19:32:48;;;;;;;9.85;4.05;;;;;;;;;;5127493;27;20024;-51
2023/03/20 19:35:14;;;;;;;7.18;3.40;;;;;;;;;;5128904;27;20023;-49
2023/03/20 19:37:40;;;;;;;6.90;3.42;;;;;;;;;;5128368;27;20367;-50
2023/03/20 19:40:17;;;;;;;5.30;2.67;;;;;;;;;;5128285;27;20498;-49
2023/03/20 19:42:43;;;;;;;5.05;2.90;;;;;;;;;;5128331;27;20016;-49
2023/03/20 19:45:09;;;;;;;3.65;1.90;;;;;;;;;;5129215;27;20027;-50
2023/03/20 19:47:35;;;;;;;2.88;2.05;;;;;;;;;;5120865;27;20444;-51
2023/03/20 19:50:02;;;;;;;3.10;2.40;;;;;;;;;;5127866;27;20059;-53
2023/03/20 19:52:32;;;;;;;2.42;1.90;;;;;;;;;;5126982;27;20039;-51
2023/03/20 19:54:58;;;;;;;3.80;2.50;;;;;;;;;;5124961;27;20019;-50
2023/03/20 19:57:24;;;;;;;3.80;2.90;;;;;;;;;;5118002;27;20042;-52
2023/03/20 19:59:50;;;;;;;3.53;2.15;;;;;;;;;;5100640;27;21278;-52
2023/03/20 20:02:16;;;;;;;3.17;2.08;;;;;;;;;;5119002;27;20905;-52
2023/03/20 20:04:43;;;;;;;2.50;2.25;;;;;;;;;;5119091;27;20058;-52
2023/03/20 20:07:09;;;;;;;2.70;2.13;;;;;;;;;;5123690;27;20050;-49